Nearby METAR Reports

 

KICL - Clarinda, Iowa, USA
Distance from station: N 49mi, 79km
Updated: Sat, 22-Feb-2020 11:35pm CST
Clear
Clear
 Wind from S
Wind: S 3 mph , 6 km/h
Temperature: 32°F , 0°C
Dew Point: 30°F , -1°C
Humidity: 93%
Barometer: 30.01 inHg , 1016.3 hPa
Clouds: Clear
Visibility: 10 miles , 16 km
2020/02/23 05:35 KICL 230535Z AUTO 19003KT 10SM CLR 00/M01 A3001 RMK AO2
KDSM - Des Moines, Iowa, USA
Distance from station: NNE 122mi, 196km
Updated: Sat, 22-Feb-2020 10:54pm CST
Clear
Clear
 Wind from SSW
Wind: SSW 12 mph , 19 km/h
Temperature: 41°F , 5°C
Wind Chill: 34°F , 1°C
Dew Point: 30°F , -1°C
Humidity: 66%
Barometer: 29.98 inHg , 1015.2 hPa
Clouds: Clear
Visibility: 10 miles , 16 km
2020/02/23 04:54 KDSM 230454Z 21010KT 10SM CLR 05/M01 A2998 RMK AO2 SLP157 T00501011
KFNB - Falls City, Nebraska, USA
Distance from station: W 50mi, 80km
Updated: Sat, 22-Feb-2020 10:53pm CST

 Wind from S
Wind: S 6 mph , 9 km/h
Temperature: 39°F , 4°C
Wind Chill: 35°F , 2°C
Dew Point: 32°F , 0°C
Humidity: 75%
Barometer: 30.00 inHg , 1015.9 hPa
Visibility: 10 miles , 16 km
2020/02/23 04:53 KFNB 230453Z AUTO 19005KT 10SM 04/00 A3000 RMK AO2 SLP164 T00440000
 
KMCI - Kansas City, Missouri, USA
Distance from station: S 65mi, 104km
Updated: Sat, 22-Feb-2020 10:53pm CST
Mostly cloudy
Mostly cloudy
 Wind from SSW
Wind: SSW 13 mph , 20 km/h
Temperature: 46°F , 8°C
Wind Chill: 40°F , 4°C
Dew Point: 32°F , 0°C
Humidity: 57%
Barometer: 30.03 inHg , 1016.9 hPa
Clouds: Mostly cloudy
Visibility: 10 miles , 16 km
Cloud details: Mostly cloudy 15000 ft
2020/02/23 04:53 KMCI 230453Z 20011KT 10SM BKN150 08/00 A3003 RMK AO2 SLP171 T00780000
KOMA - Omaha, Nebraska, USA
Distance from station: NNW 105mi, 169km
Updated: Sat, 22-Feb-2020 10:52pm CST
Few Clouds
Few Clouds
 Wind from SE
Wind: SE 5 mph , 7 km/h
Temperature: 39°F , 4°C
Wind Chill: 35°F , 2°C
Dew Point: 30°F , -1°C
Humidity: 70%
Barometer: 29.97 inHg , 1014.9 hPa
Clouds: Few Clouds
Visibility: 10 miles , 16 km
Cloud details: Few Clouds 25000 ft
2020/02/23 04:52 KOMA 230452Z 14004KT 10SM FEW250 04/M01 A2997 RMK AO2 SLP155 T00391006
KRDK - Red Oak, Iowa, USA
Distance from station: N 70mi, 112km
Updated: Sat, 22-Feb-2020 11:35pm CST
Clear
Clear
 Wind from calm
Wind: Calm
Temperature: 32°F , 0°C
Dew Point: 30°F , -1°C
Humidity: 93%
Barometer: 29.98 inHg , 1015.2 hPa
Clouds: Clear
Visibility: 10 miles , 16 km
2020/02/23 05:35 KRDK 230535Z AUTO 00000KT 10SM CLR 00/M01 A2998 RMK AO2
 
KSTJ - Saint Joseph, Missouri, USA
Distance from station: SW 23mi, 37km
Updated: Sat, 22-Feb-2020 10:53pm CST
Clear
Clear
 Wind from S
Wind: S 5 mph , 7 km/h
Temperature: 41°F , 5°C
Wind Chill: 38°F , 3°C
Dew Point: 30°F , -1°C
Humidity: 66%
Barometer: 30.03 inHg , 1016.9 hPa
Clouds: Clear
Visibility: 10 miles , 16 km
2020/02/23 04:53 KSTJ 230453Z AUTO 19004KT 10SM CLR 05/M01 A3003 RMK AO2 SLP173 T00501006
KTOP - Topeka, Kansas, USA
Distance from station: SW 85mi, 137km
Updated: Sat, 22-Feb-2020 10:53pm CST
Clear
Clear
 Wind from S
Wind: S 6 mph , 9 km/h
Temperature: 45°F , 7°C
Wind Chill: 42°F , 6°C
Dew Point: 32°F , 0°C
Humidity: 61%
Barometer: 30.03 inHg , 1016.9 hPa
Clouds: Clear
Visibility: 10 miles , 16 km
2020/02/23 04:53 KTOP 230453Z AUTO 19005KT 10SM CLR 07/00 A3003 RMK AO2 SLP172 T00670000
KICT - Wichita, Kansas, USA
Distance from station: SW 215mi, 346km
Updated: Sat, 22-Feb-2020 10:53pm CST
Overcast
Overcast
 Wind from S
Wind: S 10 mph , 17 km/h
Temperature: 48°F , 9°C
Wind Chill: 44°F , 7°C
Dew Point: 36°F , 2°C
Humidity: 62%
Barometer: 30.03 inHg , 1016.9 hPa
Clouds: Overcast
Visibility: 10 miles , 16 km
Cloud details: Overcast 15000 ft
2020/02/23 04:53 KICT 230453Z 19009KT 10SM OVC150 09/02 A3003 RMK AO2 SLP172 T00890022